Forside
METAR-TAF:

METAR-TAF

Lufthavne :

Chongqing Jiangbei International Airport

Chongqing, Kina

Breddekreds: 29-31N, længdekreds: 106-29E, højde: 351 m

Aktuelle vejr

Denne rapport blev lavet for 1 time og 1 minutter siden, kl. 20:00 UTC
Vind 6 kt fra øst
Temperatur 27°C
Fugtighed 79%
Tryk 1006 hPa
Sigt 10 km eller mere
ingen skyer under 1500m og ingen cumulonimbus

METAR: ZUCK 142000Z 08003MPS CAVOK 27/23 Q1006 NOSIG

Tid: 05:01 (21:01 UTC)

Vejrudsigter

Denne rapport blev lavet for 5 timer og 59 minutter siden, kl. 15:02 UTC
Foreløbig gælder fra 14 på 18 UTC til 15 på 18 UTC
Vind 6 kt fra nord
Sigt: 6000 m
Spredte skyer i en højde af 4000 ft
Midlertidig
fra 15 på 06 UTC til 15 på 10 UTC
Spredte skyer i en højde af 4000 ft
Nogle få skyer i en højde af 4000 ft, Cumulonimbus.
tordenbyger, regn

TAF: ZUCK 141502Z 1418/1518 36003MPS 6000 SCT040 TX34/1508Z TN26/1421Z TEMPO 1506/1510 TSRA SCT040 FEW040CB

Vejrobservationer og prognoser fra mere end 4000 lufthavne (METAR og TAF).

De gule og røde prikker repræsenterer de meteorologiske stationer.

Flyt musen over at se navnet på stationen.

Så klik over at se vejr observationer og prognoser.

At skifte det kort: Klik på de grønne knapper med et sort kors for at zoome ind; på den grønne knap med en bindestreg for at zoome ud; eller på de grønne pile for tilstødende kort.


METAR-TAF: